createdAt,value
2018-09-21T00:01:47.252Z,67.54
2018-09-21T00:04:16.131Z,66.61
2018-09-21T00:06:45.009Z,67.93
2018-09-21T00:09:14.212Z,67.86
2018-09-21T00:11:43.081Z,68.17
2018-09-21T00:14:12.059Z,68.83
2018-09-21T00:16:40.972Z,68.37
2018-09-21T00:19:09.890Z,68.43
2018-09-21T00:21:39.191Z,68.32
2018-09-21T00:24:08.044Z,68.44
2018-09-21T00:26:36.947Z,68.50
2018-09-21T00:29:05.847Z,68.75
2018-09-21T00:31:34.719Z,68.56
2018-09-21T00:34:03.814Z,68.10
2018-09-21T00:36:32.679Z,68.83
2018-09-21T00:39:01.681Z,67.79
2018-09-21T00:41:30.591Z,67.07
2018-09-21T00:43:59.480Z,67.29
2018-09-21T00:46:28.383Z,66.60
2018-09-21T00:48:57.288Z,66.70
2018-09-21T00:51:26.170Z,67.23
2018-09-21T00:53:56.075Z,67.16
2018-09-21T00:56:29.046Z,66.82
2018-09-21T00:59:15.189Z,68.47
2018-09-21T01:01:44.151Z,68.42
2018-09-21T01:04:13.230Z,68.42
2018-09-21T01:06:42.093Z,68.64
2018-09-21T01:09:11.919Z,68.36
2018-09-21T01:11:40.956Z,69.08
2018-09-21T01:14:09.864Z,69.08
2018-09-21T01:16:38.745Z,68.79
2018-09-21T01:19:07.660Z,68.78
2018-09-21T01:21:36.539Z,68.57
2018-09-21T01:24:05.450Z,68.46
2018-09-21T01:26:34.393Z,67.66
2018-09-21T01:29:03.249Z,67.88
2018-09-21T01:31:32.138Z,67.28
2018-09-21T01:34:01.044Z,68.44
2018-09-21T01:36:30.243Z,68.12
2018-09-21T01:38:59.123Z,67.71
2018-09-21T01:41:28.057Z,67.82
2018-09-21T01:43:56.961Z,68.61
2018-09-21T01:46:25.864Z,68.94
2018-09-21T01:48:54.779Z,68.95
2018-09-21T01:51:23.799Z,69.83
2018-09-21T01:53:52.713Z,69.23
2018-09-21T01:56:21.669Z,69.34
2018-09-21T01:58:50.874Z,69.12
2018-09-21T02:01:19.844Z,69.67
2018-09-21T02:03:48.738Z,70.16
2018-09-21T02:06:17.637Z,69.28
2018-09-21T02:08:46.801Z,70.13
2018-09-21T02:11:15.797Z,68.98
2018-09-21T02:13:44.751Z,70.71
2018-09-21T02:16:13.699Z,70.09
2018-09-21T02:18:42.795Z,70.43
2018-09-21T02:21:11.812Z,70.62
2018-09-21T02:23:40.720Z,70.09
2018-09-21T02:26:09.741Z,70.21
2018-09-21T02:28:38.702Z,70.73
2018-09-21T02:31:07.686Z,70.29
2018-09-21T02:33:36.596Z,70.76
2018-09-21T02:36:05.813Z,70.48
2018-09-21T02:38:34.723Z,70.39
2018-09-21T02:41:03.685Z,69.63
2018-09-21T02:43:32.606Z,69.79
2018-09-21T02:46:01.499Z,69.39
2018-09-21T02:48:30.420Z,69.04
2018-09-21T02:50:59.363Z,68.82
2018-09-21T02:53:28.279Z,69.36
2018-09-21T02:55:57.132Z,68.70
2018-09-21T02:58:26.070Z,69.18
2018-09-21T03:00:55.093Z,70.03
2018-09-21T03:03:24.017Z,70.29
2018-09-21T03:05:52.988Z,70.17
2018-09-21T03:08:21.879Z,70.66
2018-09-21T03:10:50.933Z,70.45
2018-09-21T03:13:19.971Z,69.80
2018-09-21T03:15:48.832Z,69.21
2018-09-21T03:18:17.777Z,69.45
2018-09-21T03:20:46.723Z,69.54
2018-09-21T03:23:15.635Z,69.88
2018-09-21T03:25:44.759Z,69.45
2018-09-21T03:28:13.674Z,69.72
2018-09-21T03:30:42.590Z,69.94
2018-09-21T03:33:11.562Z,69.58
2018-09-21T03:35:40.512Z,69.49
2018-09-21T03:38:09.517Z,69.84
2018-09-21T03:40:38.363Z,69.98
2018-09-21T03:43:08.172Z,69.92
2018-09-21T03:45:37.071Z,70.01
2018-09-21T03:48:06.013Z,69.82
2018-09-21T03:50:35.055Z,70.73
2018-09-21T03:53:03.995Z,70.50
2018-09-21T03:55:33.130Z,70.72
2018-09-21T03:58:02.175Z,70.76
2018-09-21T04:00:31.065Z,71.41
2018-09-21T04:02:59.979Z,71.61
2018-09-21T04:05:28.852Z,71.13
2018-09-21T04:07:57.767Z,70.97
2018-09-21T04:10:26.690Z,72.11
2018-09-21T04:12:55.610Z,71.44
2018-09-21T04:15:24.527Z,71.51
2018-09-21T04:17:53.743Z,72.07
2018-09-21T04:20:22.632Z,70.85
2018-09-21T04:22:57.719Z,71.48
2018-09-21T04:25:26.583Z,72.22
2018-09-21T04:27:55.508Z,72.91
2018-09-21T04:30:24.774Z,72.33
2018-09-21T04:32:53.667Z,73.28
2018-09-21T04:35:22.559Z,72.55
2018-09-21T04:37:51.877Z,71.82
2018-09-21T04:40:20.919Z,72.17
2018-09-21T04:42:50.123Z,72.99
2018-09-21T04:45:19.249Z,72.20
2018-09-21T04:47:48.138Z,72.29
2018-09-21T04:50:17.038Z,73.14
2018-09-21T04:52:45.976Z,73.48
2018-09-21T04:55:14.872Z,73.05
2018-09-21T04:57:43.858Z,73.99
2018-09-21T05:00:12.726Z,73.73
2018-09-21T05:02:41.575Z,73.75
2018-09-21T05:05:10.509Z,73.99
2018-09-21T05:07:39.407Z,72.69
2018-09-21T05:10:08.352Z,74.13
2018-09-21T05:12:37.258Z,74.33
2018-09-21T05:15:06.691Z,74.12
2018-09-21T05:17:35.636Z,73.87
2018-09-21T05:20:04.544Z,73.39
2018-09-21T05:22:33.551Z,74.49
2018-09-21T05:25:02.405Z,75.30
2018-09-21T05:27:31.360Z,74.79
2018-09-21T05:30:00.220Z,75.08
2018-09-21T05:32:29.190Z,75.52
2018-09-21T05:34:58.075Z,74.93
2018-09-21T05:37:27.011Z,75.81
2018-09-21T05:39:55.965Z,75.04
2018-09-21T05:42:25.118Z,76.15
2018-09-21T05:44:53.966Z,75.07
2018-09-21T05:47:22.843Z,75.09
2018-09-21T05:49:51.916Z,75.20
2018-09-21T05:52:20.821Z,75.74
2018-09-21T05:54:49.718Z,75.26
2018-09-21T05:57:18.626Z,76.53
2018-09-21T05:59:47.506Z,75.96
2018-09-21T06:02:16.566Z,76.25
2018-09-21T06:04:45.319Z,76.07
2018-09-21T06:07:14.203Z,76.09
2018-09-21T06:09:43.111Z,76.27
2018-09-21T06:12:12.108Z,76.44
2018-09-21T06:14:40.959Z,75.42
2018-09-21T06:17:09.977Z,75.33
2018-09-21T06:19:45.454Z,75.36
2018-09-21T06:22:14.383Z,75.57
2018-09-21T06:24:43.282Z,75.79
2018-09-21T06:27:12.339Z,75.36
2018-09-21T06:29:41.228Z,74.95
2018-09-21T06:32:10.158Z,74.33
2018-09-21T06:34:39.060Z,74.33
2018-09-21T06:37:07.922Z,73.80
2018-09-21T06:39:36.818Z,73.00
2018-09-21T06:42:05.711Z,73.57
2018-09-21T06:44:34.678Z,73.68
2018-09-21T06:47:03.617Z,72.74
2018-09-21T06:49:32.571Z,71.96
2018-09-21T06:52:01.473Z,72.19
2018-09-21T06:54:30.467Z,71.15
2018-09-21T06:56:59.461Z,70.49
2018-09-21T06:59:28.354Z,69.56
2018-09-21T07:01:57.591Z,69.67
2018-09-21T07:04:26.470Z,69.65
2018-09-21T07:06:55.411Z,68.17
2018-09-21T07:09:24.410Z,68.48
2018-09-21T07:11:53.393Z,68.79
2018-09-21T07:14:22.431Z,68.42
2018-09-21T07:16:51.329Z,66.79
2018-09-21T07:19:20.222Z,67.60
2018-09-21T07:21:49.144Z,67.88
2018-09-21T07:24:18.088Z,67.42
2018-09-21T07:26:46.935Z,66.73
2018-09-21T07:29:15.864Z,65.78
2018-09-21T07:31:44.784Z,65.73
2018-09-21T07:34:13.680Z,67.36
2018-09-21T07:36:42.598Z,65.52
2018-09-21T07:39:11.853Z,65.02
2018-09-21T07:41:40.734Z,64.52
2018-09-21T07:44:09.652Z,65.17
2018-09-21T07:46:38.609Z,64.50
2018-09-21T07:49:07.529Z,64.13
2018-09-21T07:51:36.481Z,64.19
2018-09-21T07:54:05.410Z,63.97
2018-09-21T07:56:34.290Z,64.60
2018-09-21T07:59:03.289Z,63.65
2018-09-21T08:01:32.322Z,63.90
2018-09-21T08:04:01.439Z,62.85
2018-09-21T08:06:30.343Z,63.04
2018-09-21T08:08:59.271Z,63.54
2018-09-21T08:11:28.295Z,62.18
2018-09-21T08:13:57.319Z,63.14
2018-09-21T08:16:26.213Z,62.77
2018-09-21T08:18:55.131Z,62.00
2018-09-21T08:21:24.004Z,62.55
2018-09-21T08:23:53.038Z,62.17
2018-09-21T08:26:22.004Z,62.80
2018-09-21T08:28:51.136Z,62.52
2018-09-21T08:31:20.202Z,61.89
2018-09-21T08:33:49.286Z,60.68
2018-09-21T08:36:18.354Z,62.21
2018-09-21T08:38:47.329Z,62.14
2018-09-21T08:41:16.250Z,62.14
2018-09-21T08:43:45.272Z,61.65
2018-09-21T08:46:14.940Z,61.00
2018-09-21T08:48:44.198Z,61.05
2018-09-21T08:51:13.254Z,60.19
2018-09-21T08:53:42.195Z,59.89
2018-09-21T08:56:11.677Z,61.13
2018-09-21T08:58:40.697Z,60.99
2018-09-21T09:01:09.714Z,60.86
2018-09-21T09:03:38.645Z,59.89
2018-09-21T09:06:07.689Z,59.11
2018-09-21T09:08:36.564Z,59.27
2018-09-21T09:11:05.581Z,60.41
2018-09-21T09:13:34.430Z,59.38
2018-09-21T09:16:03.401Z,58.52
2018-09-21T09:18:32.352Z,59.54
2018-09-21T09:21:01.248Z,59.39
2018-09-21T09:23:30.103Z,59.22
2018-09-21T09:25:58.991Z,58.78
2018-09-21T09:28:28.082Z,57.89
2018-09-21T09:30:57.064Z,58.33
2018-09-21T09:33:25.962Z,58.08
2018-09-21T09:35:54.893Z,57.05
2018-09-21T09:38:23.784Z,57.06
2018-09-21T09:40:52.827Z,56.23
2018-09-21T09:43:21.798Z,56.80
2018-09-21T09:45:50.787Z,55.69
2018-09-21T09:48:19.857Z,55.16
2018-09-21T09:50:48.856Z,54.38
2018-09-21T09:53:17.730Z,53.85
2018-09-21T09:55:46.656Z,53.17
2018-09-21T09:58:15.582Z,54.53
2018-09-21T10:00:50.017Z,54.17
2018-09-21T10:03:19.032Z,54.12
2018-09-21T10:05:47.925Z,52.42
2018-09-21T10:08:16.808Z,52.91
2018-09-21T10:10:45.798Z,52.80
2018-09-21T10:13:14.895Z,52.94
2018-09-21T10:15:43.805Z,52.85
2018-09-21T10:18:12.690Z,52.62
2018-09-21T10:20:41.613Z,52.28
2018-09-21T10:23:10.462Z,52.73
2018-09-21T10:25:39.389Z,52.32
2018-09-21T10:28:08.507Z,52.95
2018-09-21T10:30:37.266Z,52.51
2018-09-21T10:33:06.228Z,53.07
2018-09-21T10:35:35.198Z,52.46
2018-09-21T10:38:04.141Z,53.52
2018-09-21T10:40:33.127Z,53.35
2018-09-21T10:43:02.078Z,52.69
2018-09-21T10:45:31.125Z,53.29
2018-09-21T10:48:00.011Z,52.84
2018-09-21T10:50:29.910Z,54.10
2018-09-21T10:52:58.870Z,53.47
2018-09-21T10:55:27.796Z,54.10
2018-09-21T10:57:56.688Z,53.85
2018-09-21T11:00:25.613Z,53.62
2018-09-21T11:02:54.604Z,53.73
2018-09-21T11:05:23.825Z,55.40
2018-09-21T11:07:52.841Z,59.25
2018-09-21T11:10:21.721Z,60.44
2018-09-21T11:12:50.607Z,62.98
2018-09-21T11:15:19.585Z,64.45
2018-09-21T11:17:48.510Z,67.28
2018-09-21T11:20:17.438Z,70.54
2018-09-21T11:22:46.379Z,72.43
2018-09-21T11:25:15.250Z,74.48
2018-09-21T11:27:44.183Z,78.88
2018-09-21T11:30:13.111Z,81.83
2018-09-21T11:32:41.979Z,81.42
2018-09-21T11:35:10.891Z,81.65
2018-09-21T11:37:39.840Z,82.39
2018-09-21T11:40:08.719Z,82.79
2018-09-21T11:42:37.747Z,82.86
2018-09-21T11:45:06.719Z,82.37
2018-09-21T11:47:35.800Z,82.62
2018-09-21T11:50:04.635Z,82.00
2018-09-21T11:52:33.814Z,80.79
2018-09-21T11:55:02.665Z,80.22
2018-09-21T11:57:31.796Z,81.18
2018-09-21T12:00:00.770Z,79.78
2018-09-21T12:02:29.823Z,79.70
2018-09-21T12:04:58.949Z,79.89
2018-09-21T12:07:27.790Z,79.45
2018-09-21T12:09:56.712Z,79.96
2018-09-21T12:12:25.597Z,80.68
2018-09-21T12:14:54.776Z,81.91
2018-09-21T12:17:23.641Z,81.09
2018-09-21T12:19:52.631Z,80.78
2018-09-21T12:22:21.530Z,79.68
2018-09-21T12:24:50.461Z,80.46
2018-09-21T12:27:19.361Z,79.71
2018-09-21T12:29:48.222Z,79.81
2018-09-21T12:32:17.394Z,78.29
2018-09-21T12:34:46.252Z,77.89
2018-09-21T12:37:15.164Z,78.30
2018-09-21T12:39:44.396Z,77.84
2018-09-21T12:42:13.342Z,79.17
2018-09-21T12:44:42.265Z,80.12
2018-09-21T12:47:11.168Z,81.22
2018-09-21T12:49:40.148Z,79.93
2018-09-21T12:52:09.239Z,80.28
2018-09-21T12:54:38.452Z,81.35
2018-09-21T12:57:07.313Z,81.62
2018-09-21T12:59:36.380Z,81.10
2018-09-21T13:02:05.212Z,80.12
2018-09-21T13:04:34.339Z,80.76
2018-09-21T13:07:03.368Z,80.44
2018-09-21T13:09:32.229Z,79.72
2018-09-21T13:12:01.159Z,80.20
2018-09-21T13:14:30.180Z,80.03
2018-09-21T13:16:59.224Z,81.14
2018-09-21T13:19:28.078Z,80.83
2018-09-21T13:21:56.970Z,82.39
2018-09-21T13:24:25.850Z,81.55
2018-09-21T13:26:54.773Z,81.06
2018-09-21T13:29:23.658Z,82.27
2018-09-21T13:31:52.617Z,81.84
2018-09-21T13:34:21.621Z,80.51
2018-09-21T13:36:51.190Z,81.84
2018-09-21T13:39:20.116Z,81.22
2018-09-21T13:41:49.146Z,81.57
2018-09-21T13:44:18.035Z,81.75
2018-09-21T13:46:46.921Z,80.84
2018-09-21T13:49:15.830Z,82.13
2018-09-21T13:51:44.745Z,81.50
2018-09-21T13:54:13.630Z,82.54
2018-09-21T13:56:42.576Z,81.55
2018-09-21T13:59:12.602Z,80.92
2018-09-21T14:01:41.484Z,80.48
2018-09-21T14:04:10.339Z,80.52
2018-09-21T14:06:39.274Z,81.58
2018-09-21T14:09:09.010Z,80.78
2018-09-21T14:11:38.068Z,80.97
2018-09-21T14:14:07.163Z,80.60
2018-09-21T14:16:36.054Z,81.33
2018-09-21T14:19:04.944Z,79.93
2018-09-21T14:21:33.897Z,80.26
2018-09-21T14:24:02.775Z,81.45
2018-09-21T14:26:31.690Z,80.16
2018-09-21T14:29:00.652Z,81.73
2018-09-21T14:31:29.659Z,81.09
2018-09-21T14:33:58.633Z,81.32
2018-09-21T14:36:27.543Z,80.55
2018-09-21T14:38:56.478Z,80.54
2018-09-21T14:41:31.708Z,80.67
2018-09-21T14:44:00.812Z,81.23
2018-09-21T14:46:29.662Z,79.97
2018-09-21T14:48:58.573Z,80.53
2018-09-21T14:51:27.472Z,80.07
2018-09-21T14:53:56.381Z,80.40
2018-09-21T14:56:25.365Z,80.52
2018-09-21T14:58:54.244Z,79.55
2018-09-21T15:01:23.108Z,78.85
2018-09-21T15:03:52.002Z,81.29
2018-09-21T15:06:21.654Z,79.89
2018-09-21T15:08:50.569Z,77.60
2018-09-21T15:11:19.440Z,77.60
2018-09-21T15:13:48.490Z,77.91
2018-09-21T15:16:17.387Z,77.24
2018-09-21T15:18:46.996Z,78.61
2018-09-21T15:21:15.993Z,77.34
2018-09-21T15:23:44.863Z,76.48
2018-09-21T15:26:13.756Z,75.24
2018-09-21T15:28:42.662Z,74.27
2018-09-21T15:31:11.688Z,72.82
2018-09-21T15:33:40.616Z,71.72
2018-09-21T15:36:09.518Z,71.72
2018-09-21T15:38:38.483Z,71.52
2018-09-21T15:41:07.447Z,70.26
2018-09-21T15:43:36.457Z,71.01
2018-09-21T15:46:05.268Z,71.27
2018-09-21T15:48:34.184Z,70.25
2018-09-21T15:51:03.092Z,70.72
2018-09-21T15:53:31.990Z,69.87
2018-09-21T15:56:00.977Z,69.27
2018-09-21T15:58:29.934Z,70.36
2018-09-21T16:00:58.821Z,69.67
2018-09-21T16:03:27.784Z,68.74
2018-09-21T16:05:56.678Z,68.87
2018-09-21T16:08:26.032Z,66.79
2018-09-21T16:10:54.912Z,67.10
2018-09-21T16:13:23.794Z,66.00
2018-09-21T16:15:52.683Z,67.54
2018-09-21T16:18:21.594Z,66.34
2018-09-21T16:20:50.461Z,66.45
2018-09-21T16:23:19.951Z,67.25
2018-09-21T16:25:49.953Z,66.57
2018-09-21T16:28:19.713Z,65.34
2018-09-21T16:30:49.009Z,65.18
2018-09-21T16:33:17.895Z,65.77
2018-09-21T16:35:46.757Z,66.10
2018-09-21T16:38:15.663Z,65.63
2018-09-21T16:40:44.660Z,64.47
2018-09-21T16:43:13.529Z,64.73
2018-09-21T16:45:42.454Z,65.73
2018-09-21T16:48:11.493Z,65.80
2018-09-21T16:50:40.350Z,64.82
2018-09-21T16:53:09.260Z,63.81
2018-09-21T16:55:38.194Z,63.77
2018-09-21T16:58:07.341Z,63.80
2018-09-21T17:00:36.229Z,63.71
2018-09-21T17:03:05.207Z,64.15
2018-09-21T17:05:34.116Z,64.40
2018-09-21T17:08:02.995Z,63.13
2018-09-21T17:10:31.890Z,63.21
2018-09-21T17:13:00.860Z,63.41
2018-09-21T17:15:29.778Z,63.79
2018-09-21T17:17:58.695Z,63.43
2018-09-21T17:20:27.555Z,63.66
2018-09-21T17:22:56.460Z,62.75
2018-09-21T17:25:25.391Z,63.54
2018-09-21T17:27:54.324Z,64.21
2018-09-21T17:30:23.194Z,63.26
2018-09-21T17:32:52.096Z,62.93
2018-09-21T17:35:21.030Z,62.47
2018-09-21T17:37:49.911Z,62.04
2018-09-21T17:40:18.832Z,61.74
2018-09-21T17:42:47.709Z,62.07
2018-09-21T17:45:16.599Z,61.57
2018-09-21T17:47:45.803Z,61.12
2018-09-21T17:50:14.689Z,60.01
2018-09-21T17:52:43.673Z,60.71
2018-09-21T17:55:12.585Z,59.80
2018-09-21T18:00:39.886Z,58.94
2018-09-21T18:03:08.829Z,58.57
2018-09-21T18:05:37.978Z,59.29
2018-09-21T18:08:06.874Z,58.58
2018-09-21T18:10:35.788Z,59.40
2018-09-21T18:13:04.740Z,58.74
2018-09-21T18:15:33.626Z,59.07
2018-09-21T18:18:02.600Z,59.46
2018-09-21T18:20:31.621Z,59.41
2018-09-21T18:23:00.571Z,58.95
2018-09-21T18:25:29.797Z,58.64
2018-09-21T18:27:58.690Z,58.03
2018-09-21T18:30:27.629Z,58.20
2018-09-21T18:32:56.563Z,58.22
2018-09-21T18:35:25.748Z,57.25
2018-09-21T18:37:54.648Z,57.21
2018-09-21T18:40:23.578Z,57.34
2018-09-21T18:42:52.503Z,56.95
2018-09-21T18:45:21.408Z,56.17
2018-09-21T18:47:50.320Z,57.14
2018-09-21T18:50:19.266Z,57.39
2018-09-21T18:52:48.195Z,57.79
2018-09-21T18:55:17.170Z,57.07
2018-09-21T18:57:46.060Z,58.27
2018-09-21T19:00:15.146Z,57.78
2018-09-21T19:02:44.039Z,57.68
2018-09-21T19:05:13.055Z,57.52
2018-09-21T19:07:41.962Z,57.65
2018-09-21T19:10:10.856Z,57.68
2018-09-21T19:12:39.904Z,58.96
2018-09-21T19:15:08.785Z,58.19
2018-09-21T19:17:37.761Z,58.58
2018-09-21T19:20:08.537Z,58.10
2018-09-21T19:22:37.696Z,59.45
2018-09-21T19:25:06.628Z,58.88
2018-09-21T19:27:35.675Z,58.71
2018-09-21T19:30:04.650Z,57.91
2018-09-21T19:32:33.548Z,58.49
2018-09-21T19:35:02.501Z,59.29
2018-09-21T19:37:31.414Z,59.38
2018-09-21T19:40:00.326Z,58.36
2018-09-21T19:42:29.393Z,58.81
2018-09-21T19:44:58.671Z,59.58
2018-09-21T19:47:27.524Z,60.17
2018-09-21T19:49:56.404Z,61.12
2018-09-21T19:52:25.541Z,62.38
2018-09-21T19:54:54.560Z,63.34
2018-09-21T19:57:23.461Z,64.35
2018-09-21T19:59:52.421Z,66.07
2018-09-21T20:02:21.374Z,67.54
2018-09-21T20:04:50.687Z,68.02
2018-09-21T20:07:19.638Z,68.15
2018-09-21T20:09:48.555Z,68.82
2018-09-21T20:12:17.479Z,68.97
2018-09-21T20:14:46.453Z,68.78
2018-09-21T20:17:15.371Z,68.38
2018-09-21T20:19:44.304Z,69.20
2018-09-21T20:22:13.183Z,69.47
2018-09-21T20:24:42.133Z,68.19
2018-09-21T20:27:11.126Z,68.41
2018-09-21T20:29:40.070Z,68.55
2018-09-21T20:32:14.326Z,67.57
2018-09-21T20:34:43.520Z,67.45
2018-09-21T20:37:12.807Z,66.98
2018-09-21T20:39:41.496Z,67.28
2018-09-21T20:42:10.862Z,66.81
2018-09-21T20:44:40.059Z,67.05
2018-09-21T20:47:09.342Z,67.36
2018-09-21T20:49:38.286Z,68.56
2018-09-21T20:52:07.226Z,68.18
2018-09-21T20:54:36.117Z,68.07
2018-09-21T20:57:05.149Z,68.65
2018-09-21T20:59:34.158Z,69.43
2018-09-21T21:02:03.176Z,69.04
2018-09-21T21:04:32.091Z,68.98
2018-09-21T21:07:01.005Z,69.42
2018-09-21T21:09:29.966Z,69.01
2018-09-21T21:11:58.901Z,69.95
2018-09-21T21:14:27.822Z,70.20
2018-09-21T21:16:56.771Z,70.52
2018-09-21T21:19:25.849Z,70.21
2018-09-21T21:21:54.997Z,70.39
2018-09-21T21:24:23.886Z,69.92
2018-09-21T21:26:52.813Z,70.04
2018-09-21T21:29:21.725Z,70.65
2018-09-21T21:31:50.631Z,70.55
2018-09-21T21:34:19.594Z,70.27
2018-09-21T21:36:48.545Z,71.04
2018-09-21T21:39:17.483Z,71.19
2018-09-21T21:41:46.411Z,71.02
2018-09-21T21:44:15.335Z,71.16
2018-09-21T21:46:44.250Z,71.98
2018-09-21T21:49:13.180Z,71.92
2018-09-21T21:51:42.098Z,71.83
2018-09-21T21:54:11.019Z,73.02
2018-09-21T21:56:40.166Z,72.63
2018-09-21T21:59:09.065Z,72.23
2018-09-21T22:01:43.274Z,73.01
2018-09-21T22:04:12.207Z,73.08
2018-09-21T22:06:41.143Z,72.81
2018-09-21T22:09:11.021Z,73.71
2018-09-21T22:11:45.387Z,74.05
2018-09-21T22:14:14.903Z,73.36
2018-09-21T22:16:43.780Z,74.51
2018-09-21T22:19:12.761Z,74.69
2018-09-21T22:21:41.692Z,73.74
2018-09-21T22:24:10.632Z,74.79
2018-09-21T22:26:39.524Z,75.11
2018-09-21T22:29:08.441Z,74.38
2018-09-21T22:31:37.380Z,75.10
2018-09-21T22:34:06.448Z,74.83
2018-09-21T22:36:35.354Z,75.74
2018-09-21T22:39:06.370Z,76.04
2018-09-21T22:41:35.324Z,76.18
2018-09-21T22:44:04.418Z,76.38
2018-09-21T22:46:33.397Z,75.56
2018-09-21T22:49:03.690Z,77.60
2018-09-21T22:51:32.589Z,76.32
2018-09-21T22:54:01.620Z,76.04
2018-09-21T22:56:30.564Z,77.21
2018-09-21T22:58:59.495Z,76.36
2018-09-21T23:01:28.461Z,77.18
2018-09-21T23:03:57.516Z,77.57
2018-09-21T23:06:26.503Z,77.45
2018-09-21T23:08:55.431Z,77.20
2018-09-21T23:11:24.379Z,78.11
2018-09-21T23:13:53.252Z,78.26
2018-09-21T23:16:22.175Z,79.00
2018-09-21T23:18:51.245Z,78.10
2018-09-21T23:21:20.139Z,78.02
2018-09-21T23:23:49.084Z,78.06
2018-09-21T23:26:17.996Z,77.87
2018-09-21T23:28:47.119Z,77.83
2018-09-21T23:31:15.994Z,78.85
2018-09-21T23:33:44.894Z,78.32
2018-09-21T23:36:13.873Z,78.31
2018-09-21T23:38:42.785Z,78.45
2018-09-21T23:41:11.702Z,78.70
2018-09-21T23:43:40.627Z,78.06
2018-09-21T23:46:09.668Z,78.80
2018-09-21T23:48:38.741Z,79.29
2018-09-21T23:51:08.483Z,80.11
2018-09-21T23:53:37.697Z,78.90
2018-09-21T23:56:06.708Z,79.63
2018-09-21T23:58:35.611Z,80.42
